Time;durP1;ratioP1;P1;durP2;ratioP2;P2;SDS_P1;SDS_P2;PMS_P1;PMS_P2;Temp;Humidity;BMP_temperature;BMP_pressure;BME280_temperature;BME280_humidity;BME280_pressure;Samples;Min_cycle;Max_cycle;Signal;HPM_P1;HPM_P2
2021/07/22 00:01:06;;;;;;;6.07;4.90;;;17.30;99.90;;;;;;5091591;28;20224;-64
2021/07/22 00:03:33;;;;;;;7.70;5.55;;;17.30;99.90;;;;;;5091118;28;20204;-63
2021/07/22 00:06:01;;;;;;;6.10;5.03;;;17.30;99.90;;;;;;5091209;28;20664;-64
2021/07/22 00:08:29;;;;;;;6.88;5.03;;;17.30;99.90;;;;;;5091364;28;20295;-62
2021/07/22 00:10:56;;;;;;;7.68;5.55;;;17.40;99.90;;;;;;5091595;28;20266;-62
2021/07/22 00:13:23;;;;;;;12.37;5.83;;;17.40;99.90;;;;;;5091640;28;20207;-62
2021/07/22 00:15:50;;;;;;;8.53;5.43;;;17.40;99.90;;;;;;5091444;28;20280;-62
2021/07/22 00:18:16;;;;;;;7.60;5.15;;;17.30;99.90;;;;;;5091128;28;20234;-62
2021/07/22 00:20:43;;;;;;;7.28;5.03;;;17.20;99.90;;;;;;5090903;28;20228;-62
2021/07/22 00:23:12;;;;;;;8.65;5.32;;;17.30;99.90;;;;;;5091134;28;20208;-62
2021/07/22 00:25:40;;;;;;;7.50;5.78;;;17.40;99.90;;;;;;5091324;28;20204;-62
2021/07/22 00:28:07;;;;;;;6.68;4.72;;;17.40;99.90;;;;;;5090959;28;20211;-62
2021/07/22 00:30:34;;;;;;;5.83;5.00;;;17.40;99.90;;;;;;5090965;28;20204;-62
2021/07/22 00:33:01;;;;;;;5.90;4.90;;;17.40;99.90;;;;;;5091255;28;20204;-62
2021/07/22 00:35:28;;;;;;;7.55;5.30;;;17.50;99.90;;;;;;5091326;28;20204;-62
2021/07/22 00:37:55;;;;;;;6.85;5.28;;;17.40;99.90;;;;;;5091373;28;20220;-62
2021/07/22 00:40:21;;;;;;;9.55;5.68;;;17.40;99.90;;;;;;5091098;28;20234;-62
2021/07/22 00:42:57;;;;;;;9.33;5.57;;;17.30;99.90;;;;;;5091102;28;20336;-62
2021/07/22 00:45:24;;;;;;;7.00;5.03;;;17.30;99.90;;;;;;5090714;28;20204;-62
2021/07/22 00:47:51;;;;;;;6.20;5.37;;;17.20;99.90;;;;;;5090929;28;20406;-62
2021/07/22 00:50:17;;;;;;;8.88;5.30;;;17.20;99.90;;;;;;5090869;28;20217;-62
2021/07/22 00:52:44;;;;;;;7.47;5.30;;;17.20;99.90;;;;;;5090613;28;20225;-62
2021/07/22 00:55:13;;;;;;;8.77;5.60;;;17.20;99.90;;;;;;5090911;28;20200;-63
2021/07/22 00:57:40;;;;;;;6.28;5.03;;;17.10;99.90;;;;;;5093000;28;20277;-62
2021/07/22 01:00:09;;;;;;;7.83;5.17;;;17.20;99.90;;;;;;5094208;28;20216;-63
2021/07/22 01:02:36;;;;;;;5.93;4.97;;;17.10;99.90;;;;;;5094182;28;20236;-62
2021/07/22 01:05:03;;;;;;;10.57;5.37;;;17.00;99.90;;;;;;5094010;28;20603;-62
2021/07/22 01:07:30;;;;;;;8.43;5.10;;;17.10;99.90;;;;;;5094498;28;20208;-62
2021/07/22 01:09:56;;;;;;;8.00;5.30;;;17.00;99.90;;;;;;5094291;28;20212;-62
2021/07/22 01:12:23;;;;;;;5.87;4.83;;;17.00;99.90;;;;;;5094114;28;20224;-62
2021/07/22 01:14:50;;;;;;;5.93;4.87;;;17.00;99.90;;;;;;5094308;28;20209;-62
2021/07/22 01:17:26;;;;;;;6.23;5.30;;;16.90;99.90;;;;;;5094206;28;20224;-62
2021/07/22 01:19:53;;;;;;;12.80;4.90;;;16.80;99.90;;;;;;5093854;28;20204;-62
2021/07/22 01:22:21;;;;;;;6.80;5.07;;;16.70;99.90;;;;;;5093967;28;20236;-62
2021/07/22 01:24:48;;;;;;;9.07;4.82;;;16.70;99.90;;;;;;5093787;28;20579;-62
2021/07/22 01:27:14;;;;;;;8.00;5.27;;;16.70;99.90;;;;;;5093937;28;20716;-62
2021/07/22 01:29:41;;;;;;;10.13;5.47;;;16.60;99.90;;;;;;5093883;28;20208;-62
2021/07/22 01:32:08;;;;;;;6.63;5.40;;;16.50;99.90;;;;;;5093401;28;20239;-62
2021/07/22 01:34:34;;;;;;;8.30;5.43;;;16.50;99.90;;;;;;5093602;28;20208;-62
2021/07/22 01:37:01;;;;;;;7.90;5.80;;;16.40;99.90;;;;;;5093744;28;20220;-62
2021/07/22 01:39:30;;;;;;;7.17;5.50;;;16.40;99.90;;;;;;5093753;28;20204;-62
2021/07/22 01:41:56;;;;;;;8.73;5.53;;;16.40;99.90;;;;;;5093553;28;20239;-62
2021/07/22 01:44:23;;;;;;;15.03;5.63;;;16.40;99.90;;;;;;5093283;28;20211;-62
2021/07/22 01:46:50;;;;;;;6.87;5.40;;;16.50;99.90;;;;;;5093449;28;20257;-62
2021/07/22 01:49:16;;;;;;;7.17;5.37;;;16.50;99.90;;;;;;5093489;28;20203;-62
2021/07/22 01:51:43;;;;;;;9.43;5.43;;;16.50;99.90;;;;;;5093393;28;20236;-62
2021/07/22 01:54:10;;;;;;;7.10;5.70;;;16.50;99.90;;;;;;5093033;28;20204;-62
2021/07/22 01:56:38;;;;;;;8.60;5.57;;;16.50;99.90;;;;;;5093051;28;20641;-62
2021/07/22 01:59:04;;;;;;;6.17;5.43;;;16.40;99.90;;;;;;5093020;28;20234;-62
2021/07/22 02:01:31;;;;;;;5.93;4.90;;;16.40;99.90;;;;;;5092929;28;20270;-62
2021/07/22 02:03:58;;;;;;;6.70;5.43;;;16.40;99.90;;;;;;5092837;28;20204;-62
2021/07/22 02:06:24;;;;;;;6.70;5.33;;;16.30;99.90;;;;;;5093140;28;20214;-62
2021/07/22 02:08:51;;;;;;;6.40;5.60;;;16.30;99.90;;;;;;5091829;28;20233;-62
2021/07/22 02:11:17;;;;;;;6.37;5.30;;;16.20;99.90;;;;;;5093023;28;20281;-62
2021/07/22 02:13:45;;;;;;;7.03;5.30;;;16.10;99.90;;;;;;5092886;28;20204;-62
2021/07/22 02:16:12;;;;;;;8.17;5.60;;;16.00;99.90;;;;;;5093099;28;20219;-62
2021/07/22 02:18:39;;;;;;;9.03;5.63;;;16.00;99.90;;;;;;5092539;28;20642;-62
2021/07/22 02:21:06;;;;;;;6.93;5.47;;;16.00;99.90;;;;;;5092661;28;20281;-62
2021/07/22 02:23:34;;;;;;;8.67;5.60;;;16.00;99.90;;;;;;5093055;28;20478;-62
2021/07/22 02:26:03;;;;;;;8.57;5.57;;;15.90;99.90;;;;;;5092773;28;20305;-62
2021/07/22 02:28:30;;;;;;;8.93;5.43;;;15.90;99.90;;;;;;5092355;28;20212;-62
2021/07/22 02:30:58;;;;;;;8.03;5.50;;;15.90;99.90;;;;;;5092540;28;20232;-62
2021/07/22 02:33:25;;;;;;;8.90;5.53;;;15.80;99.90;;;;;;5092353;28;20668;-62
2021/07/22 02:35:52;;;;;;;9.40;5.83;;;15.90;99.90;;;;;;5092773;28;20212;-62
2021/07/22 02:38:18;;;;;;;7.43;5.93;;;15.80;99.90;;;;;;5092547;28;20281;-62
2021/07/22 02:40:45;;;;;;;9.23;6.00;;;15.90;99.90;;;;;;5092734;28;20235;-62
2021/07/22 02:43:12;;;;;;;9.67;5.97;;;15.90;99.90;;;;;;5092254;28;20219;-62
2021/07/22 02:45:39;;;;;;;8.83;6.50;;;15.90;99.90;;;;;;5091969;28;20729;-62
2021/07/22 02:48:08;;;;;;;9.37;6.30;;;15.90;99.90;;;;;;5092409;28;20208;-62
2021/07/22 02:50:35;;;;;;;10.30;7.17;;;15.90;99.90;;;;;;5092130;28;20245;-62
2021/07/22 02:53:01;;;;;;;10.07;6.50;;;15.90;99.90;;;;;;5092097;28;20204;-62
2021/07/22 02:55:28;;;;;;;8.13;5.80;;;15.80;99.90;;;;;;5091696;28;20208;-62
2021/07/22 02:57:55;;;;;;;7.90;5.67;;;15.70;99.90;;;;;;5091945;28;20277;-62
2021/07/22 03:00:22;;;;;;;7.13;5.23;;;15.70;99.90;;;;;;5092453;28;20255;-62
2021/07/22 03:02:48;;;;;;;7.07;5.47;;;15.70;99.90;;;;;;5093155;28;20211;-63
2021/07/22 03:05:17;;;;;;;10.30;5.40;;;15.60;99.90;;;;;;5093448;28;20208;-62
2021/07/22 03:07:44;;;;;;;7.17;5.13;;;15.60;99.90;;;;;;5092391;28;20556;-63
2021/07/22 03:10:12;;;;;;;8.43;5.50;;;15.60;99.90;;;;;;5091885;28;20204;-63
2021/07/22 03:12:38;;;;;;;8.73;5.57;;;15.60;99.90;;;;;;5092000;28;20256;-62
2021/07/22 03:15:06;;;;;;;7.40;5.23;;;15.60;99.90;;;;;;5091961;28;20200;-62
2021/07/22 03:17:33;;;;;;;8.10;5.63;;;15.60;99.90;;;;;;5092128;28;20220;-63
2021/07/22 03:20:00;;;;;;;8.90;5.70;;;15.50;99.90;;;;;;5092325;28;20208;-62
2021/07/22 03:22:28;;;;;;;7.23;5.63;;;15.50;99.90;;;;;;5093040;28;20239;-63
2021/07/22 03:24:54;;;;;;;8.43;5.43;;;15.50;99.90;;;;;;5092592;28;20204;-63
2021/07/22 03:27:21;;;;;;;7.27;5.63;;;15.50;99.90;;;;;;5092834;28;20200;-62
2021/07/22 03:29:48;;;;;;;7.10;5.90;;;15.50;99.90;;;;;;5092071;28;20212;-63
2021/07/22 03:32:14;;;;;;;7.30;5.47;;;15.60;99.90;;;;;;5113227;22;20236;-62
2021/07/22 03:34:41;;;;;;;7.53;5.60;;;15.60;99.90;;;;;;5091071;28;20205;-62
2021/07/22 03:37:08;;;;;;;9.23;5.30;;;15.60;99.90;;;;;;5091286;28;20211;-62
2021/07/22 03:39:36;;;;;;;10.40;6.17;;;15.70;99.90;;;;;;5091069;28;20229;-62
2021/07/22 03:42:02;;;;;;;6.80;5.80;;;15.80;99.90;;;;;;5091218;28;20231;-62
2021/07/22 03:44:29;;;;;;;9.80;6.27;;;15.90;99.90;;;;;;5090729;28;20265;-62
2021/07/22 03:46:56;;;;;;;10.23;6.70;;;16.00;99.90;;;;;;5091084;28;20310;-62
2021/07/22 03:49:23;;;;;;;8.50;6.53;;;16.10;99.90;;;;;;5090858;28;20200;-62
2021/07/22 03:51:53;;;;;;;8.13;5.77;;;16.10;99.90;;;;;;5090912;28;20718;-62
2021/07/22 03:54:20;;;;;;;7.43;5.40;;;16.20;99.90;;;;;;5091161;28;20211;-63
2021/07/22 03:56:48;;;;;;;6.40;5.13;;;16.20;99.90;;;;;;5091070;28;20205;-60
2021/07/22 03:59:15;;;;;;;7.73;5.87;;;16.40;99.90;;;;;;5090638;28;20699;-61
2021/07/22 04:01:42;;;;;;;13.93;6.13;;;16.40;99.90;;;;;;5091422;28;20314;-61
2021/07/22 04:04:09;;;;;;;8.80;5.77;;;16.50;99.90;;;;;;5090659;28;20694;-63
2021/07/22 04:06:35;;;;;;;8.67;5.30;;;16.40;99.90;;;;;;5091221;28;20271;-61
2021/07/22 04:09:03;;;;;;;7.10;5.30;;;16.40;99.90;;;;;;5090850;28;20214;-61
2021/07/22 04:11:30;;;;;;;8.70;6.40;;;16.40;99.90;;;;;;5091011;28;20220;-61
2021/07/22 04:13:58;;;;;;;6.83;5.67;;;16.30;99.90;;;;;;5090741;28;20257;-61
2021/07/22 04:16:24;;;;;;;6.80;5.87;;;16.30;99.90;;;;;;5090694;28;20211;-61
2021/07/22 04:18:51;;;;;;;7.53;5.90;;;16.30;99.90;;;;;;5090230;28;20216;-61
2021/07/22 04:21:18;;;;;;;6.63;5.63;;;16.40;99.90;;;;;;5090710;28;20224;-62
2021/07/22 04:23:44;;;;;;;6.70;5.40;;;16.40;99.90;;;;;;5090495;28;20200;-62
2021/07/22 04:26:15;;;;;;;7.03;5.90;;;16.50;99.90;;;;;;5090604;28;20261;-62
2021/07/22 04:28:42;;;;;;;8.52;5.30;;;16.50;99.90;;;;;;5090453;28;20291;-63
2021/07/22 04:31:14;;;;;;;9.90;6.00;;;16.60;99.90;;;;;;5090431;28;20761;-62
2021/07/22 04:33:41;;;;;;;6.53;5.55;;;16.60;99.90;;;;;;5094315;28;20593;-62
2021/07/22 04:36:08;;;;;;;6.43;5.50;;;16.70;99.90;;;;;;5094360;28;20212;-62
2021/07/22 04:38:37;;;;;;;7.63;5.55;;;16.80;99.90;;;;;;5094209;28;20228;-62
2021/07/22 04:41:04;;;;;;;6.57;5.47;;;16.90;99.90;;;;;;5094287;28;20595;-61
2021/07/22 04:43:31;;;;;;;6.15;5.38;;;17.00;99.90;;;;;;5093592;28;20204;-61
2021/07/22 04:46:01;;;;;;;7.22;5.07;;;17.20;99.90;;;;;;5093874;28;20204;-62
2021/07/22 04:48:29;;;;;;;7.30;5.47;;;17.30;99.90;;;;;;5094196;28;20283;-63
2021/07/22 04:50:55;;;;;;;7.17;6.13;;;17.40;99.90;;;;;;5094201;28;20200;-62
2021/07/22 04:53:22;;;;;;;8.37;6.17;;;17.40;99.90;;;;;;5093890;28;20244;-62
2021/07/22 04:55:49;;;;;;;6.90;6.00;;;17.50;99.90;;;;;;5093960;28;20565;-62
2021/07/22 04:58:15;;;;;;;7.13;5.77;;;17.50;99.90;;;;;;5093457;28;20220;-62
2021/07/22 05:00:42;;;;;;;7.10;5.55;;;17.60;99.90;;;;;;5093644;28;20212;-62
2021/07/22 05:03:09;;;;;;;7.50;5.55;;;17.70;99.90;;;;;;5093815;28;20618;-62
2021/07/22 05:05:37;;;;;;;8.30;6.05;;;17.90;99.90;;;;;;5093423;28;20691;-62
2021/07/22 05:08:04;;;;;;;13.02;6.03;;;18.10;99.90;;;;;;5093556;28;20208;-62
2021/07/22 05:10:31;;;;;;;6.97;5.50;;;18.20;99.90;;;;;;5093545;28;20282;-62
2021/07/22 05:12:58;;;;;;;8.18;6.00;;;18.50;99.90;;;;;;5093050;28;20703;-62
2021/07/22 05:15:25;;;;;;;7.32;5.20;;;18.80;99.90;;;;;;5093298;28;20298;-62
2021/07/22 05:17:52;;;;;;;8.55;5.22;;;19.00;99.90;;;;;;5093282;28;20482;-61
2021/07/22 05:20:18;;;;;;;11.70;5.10;;;19.20;99.90;;;;;;5093562;28;20412;-62
2021/07/22 05:22:47;;;;;;;8.38;5.65;;;19.40;99.90;;;;;;5093465;28;20231;-62
2021/07/22 05:25:14;;;;;;;7.25;5.70;;;19.50;99.90;;;;;;5093449;28;20208;-61
2021/07/22 05:27:40;;;;;;;8.18;5.60;;;19.70;99.90;;;;;;5093077;28;20792;-62
2021/07/22 05:30:07;;;;;;;8.82;5.60;;;20.00;99.90;;;;;;5093514;28;20216;-62
2021/07/22 05:32:34;;;;;;;9.18;5.38;;;20.30;99.90;;;;;;5093102;28;20296;-62
2021/07/22 05:35:01;;;;;;;9.15;5.50;;;20.50;99.90;;;;;;5093402;28;20295;-62
2021/07/22 05:37:28;;;;;;;10.07;5.10;;;20.70;99.90;;;;;;5093676;28;20208;-62
2021/07/22 05:39:56;;;;;;;6.85;5.68;;;20.90;99.90;;;;;;5093370;28;20227;-62
2021/07/22 05:42:22;;;;;;;7.68;5.28;;;21.30;99.90;;;;;;5093080;28;20231;-62
2021/07/22 05:44:49;;;;;;;7.85;5.22;;;22.40;99.90;;;;;;5093445;28;20212;-62
2021/07/22 05:47:15;;;;;;;11.75;5.10;;;23.90;99.90;;;;;;5093332;28;20208;-62
2021/07/22 05:49:42;;;;;;;8.63;4.70;;;25.30;99.90;;;;;;5093488;28;20215;-62
2021/07/22 05:52:09;;;;;;;6.50;5.15;;;25.80;99.90;;;;;;5093392;28;20251;-62
2021/07/22 05:54:36;;;;;;;7.45;4.80;;;25.80;99.90;;;;;;5092952;28;20215;-63
2021/07/22 05:57:05;;;;;;;7.55;5.32;;;25.50;99.90;;;;;;5092868;28;20203;-62
2021/07/22 05:59:31;;;;;;;6.10;5.20;;;25.00;99.90;;;;;;5092634;28;20227;-63
2021/07/22 06:01:58;;;;;;;6.57;5.05;;;24.50;99.90;;;;;;5092680;28;20281;-62
2021/07/22 06:04:25;;;;;;;6.82;4.88;;;24.10;99.90;;;;;;5092988;28;20208;-62
2021/07/22 06:06:51;;;;;;;7.70;5.47;;;23.90;99.90;;;;;;5092499;28;20209;-62
2021/07/22 06:09:18;;;;;;;7.65;5.25;;;23.50;99.90;;;;;;5092317;28;20692;-62
2021/07/22 06:11:44;;;;;;;9.05;5.47;;;23.50;99.90;;;;;;5092186;28;20595;-62
2021/07/22 06:14:12;;;;;;;7.63;5.55;;;23.50;99.90;;;;;;5092204;28;20644;-62
2021/07/22 06:16:39;;;;;;;8.57;5.60;;;23.60;99.90;;;;;;5092533;28;20200;-62
2021/07/22 06:19:06;;;;;;;10.40;6.97;;;23.60;99.90;;;;;;5092110;28;20221;-62
2021/07/22 06:21:32;;;;;;;12.60;7.32;;;24.30;99.90;;;;;;5092222;28;20220;-62
2021/07/22 06:23:59;;;;;;;15.85;8.52;;;25.60;99.90;;;;;;5092129;28;20208;-62
2021/07/22 06:26:26;;;;;;;9.93;5.40;;;26.70;99.90;;;;;;5092622;28;20204;-62
2021/07/22 06:28:52;;;;;;;8.07;5.22;;;27.20;99.90;;;;;;5092063;28;20219;-63
2021/07/22 06:31:20;;;;;;;6.70;5.38;;;27.20;99.90;;;;;;5091854;28;20238;-63
2021/07/22 06:33:47;;;;;;;8.73;5.07;;;27.50;99.90;;;;;;5092025;28;20683;-63
2021/07/22 06:36:14;;;;;;;9.50;6.30;;;28.20;98.60;;;;;;5092041;28;20204;-63
2021/07/22 06:38:40;;;;;;;7.20;5.35;;;29.40;96.40;;;;;;5091939;28;20232;-63
2021/07/22 06:41:07;;;;;;;9.23;6.28;;;30.80;93.00;;;;;;5092032;28;20227;-63
2021/07/22 06:43:34;;;;;;;12.30;8.50;;;31.90;87.60;;;;;;5091639;28;20691;-63
2021/07/22 06:46:00;;;;;;;8.38;5.72;;;32.80;81.80;;;;;;5092059;28;20672;-63
2021/07/22 06:48:28;;;;;;;8.93;5.50;;;33.70;76.30;;;;;;5091898;28;20227;-63
2021/07/22 06:50:55;;;;;;;7.22;5.35;;;34.10;71.40;;;;;;5091767;28;20553;-63
2021/07/22 06:53:22;;;;;;;7.95;5.53;;;34.40;70.70;;;;;;5092238;28;20219;-64
2021/07/22 06:55:52;;;;;;;8.38;6.10;;;35.40;66.40;;;;;;5091403;28;20746;-63
2021/07/22 06:58:19;;;;;;;10.95;5.47;;;35.40;63.60;;;;;;5091750;28;20208;-62
2021/07/22 07:00:45;;;;;;;8.10;5.22;;;35.40;62.80;;;;;;5091896;28;20204;-62
2021/07/22 07:03:12;;;;;;;11.20;5.63;;;36.00;60.10;;;;;;5091830;28;20208;-62
2021/07/22 07:05:40;;;;;;;8.27;5.80;;;36.50;59.30;;;;;;5091204;28;20203;-62
2021/07/22 07:08:07;;;;;;;7.65;5.20;;;37.40;56.70;;;;;;5091401;28;20682;-62
2021/07/22 07:10:34;;;;;;;9.15;5.72;;;38.20;54.20;;;;;;5091610;28;20208;-63
2021/07/22 07:13:00;;;;;;;8.93;5.50;;;38.60;51.50;;;;;;5091281;28;20230;-63
2021/07/22 07:15:27;;;;;;;7.50;5.63;;;38.20;51.90;;;;;;5091156;28;20220;-61
2021/07/22 07:17:56;;;;;;;8.57;6.10;;;37.40;54.10;;;;;;5091186;28;20211;-62
2021/07/22 07:20:23;;;;;;;7.68;5.30;;;37.60;53.80;;;;;;5091160;28;20281;-62
2021/07/22 07:22:53;;;;;;;8.02;5.60;;;38.20;52.60;;;;;;5091268;28;20228;-62
2021/07/22 07:25:20;;;;;;;8.68;5.50;;;38.80;51.70;;;;;;5091435;28;20298;-62
2021/07/22 07:27:47;;;;;;;7.40;5.50;;;39.20;50.00;;;;;;5090981;28;20235;-62
2021/07/22 07:30:14;;;;;;;7.00;5.20;;;38.30;51.00;;;;;;5091074;28;20205;-62
2021/07/22 07:32:40;;;;;;;7.45;5.70;;;37.70;52.10;;;;;;5090859;28;20248;-62
2021/07/22 07:35:08;;;;;;;15.55;10.75;;;37.50;52.60;;;;;;5091246;28;20628;-59
2021/07/22 07:37:34;;;;;;;13.52;8.55;;;37.80;53.70;;;;;;5091085;28;20204;-59
2021/07/22 07:40:03;;;;;;;21.05;16.13;;;38.70;51.00;;;;;;5091003;28;20285;-59
2021/07/22 07:42:30;;;;;;;16.90;12.63;;;39.50;50.60;;;;;;5090727;28;20236;-59
2021/07/22 07:44:58;;;;;;;13.00;10.68;;;40.30;47.80;;;;;;5091118;28;20678;-60
2021/07/22 07:47:24;;;;;;;22.73;16.85;;;40.90;47.60;;;;;;5091990;28;20215;-58
2021/07/22 07:49:53;;;;;;;6.72;5.95;;;41.50;46.70;;;;;;5091013;28;20265;-62
2021/07/22 07:52:19;;;;;;;10.95;8.15;;;42.00;44.80;;;;;;5091291;28;20228;-61
2021/07/22 07:54:50;;;;;;;7.93;5.75;;;42.40;43.30;;;;;;5090411;28;20675;-61
2021/07/22 07:57:18;;;;;;;7.93;5.18;;;42.50;43.60;;;;;;5090801;28;20204;-60
2021/07/22 07:59:46;;;;;;;11.82;9.02;;;42.90;42.60;;;;;;5090548;28;20638;-60
2021/07/22 08:02:14;;;;;;;7.47;5.30;;;43.20;42.50;;;;;;5090897;28;20281;-60
2021/07/22 08:04:41;;;;;;;6.95;5.20;;;43.30;41.50;;;;;;5090229;28;20663;-60
2021/07/22 08:07:07;;;;;;;10.77;8.75;;;43.20;41.90;;;;;;5092288;28;20294;-60
2021/07/22 08:09:34;;;;;;;7.75;5.20;;;43.30;41.80;;;;;;5094743;28;20203;-60
2021/07/22 08:12:01;;;;;;;8.73;7.30;;;43.50;40.40;;;;;;5094849;28;20227;-60
2021/07/22 08:14:29;;;;;;;9.23;4.60;;;42.90;41.30;;;;;;5094936;28;20207;-60
2021/07/22 08:16:56;;;;;;;8.43;6.78;;;42.60;41.40;;;;;;5095011;28;20211;-60
2021/07/22 08:19:23;;;;;;;7.47;6.28;;;42.40;41.70;;;;;;5094977;28;20650;-60
2021/07/22 08:21:49;;;;;;;10.00;6.50;;;42.40;42.20;;;;;;5095146;28;20231;-60
2021/07/22 08:24:16;;;;;;;8.45;5.65;;;42.50;41.40;;;;;;5094829;28;20272;-60
2021/07/22 08:26:43;;;;;;;6.13;4.43;;;42.60;41.50;;;;;;5095084;28;20203;-60
2021/07/22 08:29:09;;;;;;;7.13;5.30;;;42.40;40.90;;;;;;5094618;28;20344;-60
2021/07/22 08:31:37;;;;;;;8.63;4.85;;;42.20;41.30;;;;;;5094523;28;20235;-61
2021/07/22 08:34:05;;;;;;;10.23;5.10;;;40.50;43.10;;;;;;5094465;28;20211;-64
2021/07/22 08:36:31;;;;;;;7.03;4.65;;;39.50;44.60;;;;;;5094801;28;20208;-65
2021/07/22 08:38:58;;;;;;;6.30;4.80;;;39.50;44.50;;;;;;5094645;28;20211;-64
2021/07/22 08:41:25;;;;;;;7.20;4.80;;;39.20;44.00;;;;;;5094214;28;20228;-63
2021/07/22 08:43:53;;;;;;;9.20;4.95;;;38.80;44.70;;;;;;5093987;28;20690;-64
2021/07/22 08:46:20;;;;;;;6.57;4.97;;;38.50;45.80;;;;;;5094334;28;20208;-65
2021/07/22 08:48:48;;;;;;;6.03;5.32;;;37.40;46.50;;;;;;5094060;28;20688;-65
2021/07/22 08:51:15;;;;;;;8.43;5.25;;;36.20;48.50;;;;;;5094087;28;20224;-64
2021/07/22 08:53:42;;;;;;;7.70;5.22;;;35.30;49.40;;;;;;5094140;28;20204;-65
2021/07/22 08:56:09;;;;;;;9.57;5.00;;;34.80;50.00;;;;;;5093872;28;20232;-66
2021/07/22 08:58:39;;;;;;;6.88;5.05;;;34.20;51.00;;;;;;5093980;28;20208;-65
2021/07/22 09:01:08;;;;;;;8.23;5.07;;;33.70;51.40;;;;;;5093927;28;20224;-64
2021/07/22 09:03:35;;;;;;;8.40;4.95;;;33.10;52.30;;;;;;5093767;28;20204;-65
2021/07/22 09:06:14;;;;;;;6.55;5.10;;;32.30;53.10;;;;;;5093880;28;20212;-65
2021/07/22 09:08:41;;;;;;;7.25;4.93;;;31.80;55.20;;;;;;5093606;28;20386;-64
2021/07/22 09:11:09;;;;;;;6.50;5.18;;;31.30;56.50;;;;;;5093940;28;20589;-65
2021/07/22 09:13:36;;;;;;;6.53;4.93;;;30.80;56.20;;;;;;5093572;28;20694;-64
2021/07/22 09:16:04;;;;;;;14.95;7.85;;;30.40;57.20;;;;;;5093753;28;20676;-65
2021/07/22 09:18:35;;;;;;;7.50;4.90;;;30.00;58.30;;;;;;5092788;28;20212;-64
2021/07/22 09:21:20;;;;;;;6.40;5.22;;;29.60;59.20;;;;;;5093459;28;20228;-65
2021/07/22 09:24:04;;;;;;;7.63;5.57;;;29.20;59.40;;;;;;5093547;28;20707;-64
2021/07/22 09:26:31;;;;;;;5.72;4.80;;;29.00;60.20;;;;;;5093686;28;20283;-65
2021/07/22 09:29:03;;;;;;;6.00;4.70;;;28.90;60.10;;;;;;5093358;28;20208;-64
2021/07/22 09:31:30;;;;;;;6.78;4.63;;;28.80;60.60;;;;;;5106386;22;21414;-60
2021/07/22 09:33:56;;;;;;;6.32;4.93;;;28.50;61.90;;;;;;5093772;28;20609;-61
2021/07/22 09:36:34;;;;;;;6.32;5.07;;;28.30;62.80;;;;;;5093756;28;20208;-60
2021/07/22 09:39:23;;;;;;;8.20;5.03;;;28.20;62.40;;;;;;5093421;28;20268;-60
2021/07/22 09:41:57;;;;;;;8.88;5.00;;;28.20;62.90;;;;;;5093246;28;20224;-62
2021/07/22 09:44:32;;;;;;;5.95;5.05;;;28.20;60.90;;;;;;5093453;28;20295;-61
2021/07/22 09:47:01;;;;;;;6.20;4.40;;;28.10;62.20;;;;;;5093555;28;20211;-61
2021/07/22 09:49:33;;;;;;;7.80;4.75;;;28.10;61.70;;;;;;5093401;28;20201;-62
2021/07/22 09:52:02;;;;;;;6.45;4.75;;;28.00;60.30;;;;;;5093381;28;20227;-61
2021/07/22 09:54:37;;;;;;;6.88;4.70;;;28.10;60.50;;;;;;5093526;28;20207;-61
2021/07/22 09:57:13;;;;;;;8.20;4.65;;;28.10;62.30;;;;;;5097277;28;20203;-61
2021/07/22 09:59:40;;;;;;;5.70;4.40;;;28.20;59.70;;;;;;5093541;28;20566;-60
2021/07/22 10:02:12;;;;;;;8.27;5.30;;;28.20;59.90;;;;;;5093560;28;20235;-61
2021/07/22 10:04:40;;;;;;;6.30;4.93;;;28.10;59.90;;;;;;5093002;28;20204;-60
2021/07/22 10:07:09;;;;;;;7.13;4.47;;;28.10;59.60;;;;;;5093173;28;20219;-61
2021/07/22 10:09:38;;;;;;;6.32;4.65;;;28.20;60.00;;;;;;5093307;28;20254;-61
2021/07/22 10:12:05;;;;;;;6.97;4.93;;;28.40;61.20;;;;;;5093077;28;20225;-60
2021/07/22 10:14:34;;;;;;;9.68;5.20;;;28.50;60.50;;;;;;5093012;28;20208;-60
2021/07/22 10:17:03;;;;;;;8.68;6.18;;;28.50;60.80;;;;;;5092459;28;20215;-60
2021/07/22 10:19:31;;;;;;;6.90;4.60;;;28.50;60.20;;;;;;5092187;28;20211;-61
2021/07/22 10:22:02;;;;;;;6.25;4.28;;;28.70;59.60;;;;;;5092361;28;20228;-60
2021/07/22 10:24:31;;;;;;;6.07;4.38;;;28.70;59.80;;;;;;5092551;28;20664;-61
2021/07/22 10:26:59;;;;;;;7.40;4.63;;;28.60;59.00;;;;;;5092598;28;20239;-60
2021/07/22 10:29:28;;;;;;;8.05;4.90;;;28.60;59.40;;;;;;5091970;28;20200;-64
2021/07/22 10:31:56;;;;;;;10.07;4.78;;;28.50;59.30;;;;;;5092372;28;20232;-60
2021/07/22 10:34:25;;;;;;;8.90;4.93;;;28.50;60.40;;;;;;5093652;28;20215;-60
2021/07/22 10:36:52;;;;;;;5.93;4.85;;;28.40;59.80;;;;;;5093916;28;20204;-60
2021/07/22 10:39:52;;;;;;;6.68;4.80;;;28.40;59.30;;;;;;5092563;28;20770;-60
2021/07/22 10:42:46;;;;;;;6.03;4.72;;;28.40;59.70;;;;;;5092377;28;20227;-61
2021/07/22 10:45:29;;;;;;;9.07;5.75;;;28.50;60.30;;;;;;5092151;28;20676;-61
2021/07/22 10:48:07;;;;;;;7.97;5.25;;;28.90;59.60;;;;;;5092818;28;20694;-61
2021/07/22 10:51:09;;;;;;;7.78;4.45;;;29.10;59.40;;;;;;5093367;28;20206;-60
2021/07/22 10:53:38;;;;;;;10.50;5.28;;;29.20;59.80;;;;;;5092454;28;20211;-61
2021/07/22 10:56:05;;;;;;;8.48;5.00;;;29.20;59.80;;;;;;5092721;28;20671;-61
2021/07/22 10:58:55;;;;;;;9.60;6.13;;;29.20;59.80;;;;;;5092389;28;20235;-61
2021/07/22 11:01:51;;;;;;;8.52;5.35;;;29.20;59.80;;;;;;5085845;28;20243;-61
2021/07/22 11:04:46;;;;;;;13.27;5.38;;;29.50;60.40;;;;;;5092301;28;20204;-61
2021/07/22 11:07:23;;;;;;;6.82;5.85;;;29.60;59.80;;;;;;5092248;28;20208;-60
2021/07/22 11:09:53;;;;;;;9.32;4.97;;;29.60;59.90;;;;;;5092332;28;20195;-60
2021/07/22 11:12:40;;;;;;;9.32;5.43;;;29.60;60.10;;;;;;5091781;28;20220;-60
2021/07/22 11:15:09;;;;;;;7.43;6.25;;;29.50;59.90;;;;;;5091676;28;20212;-60
2021/07/22 11:17:37;;;;;;;9.45;5.65;;;29.60;60.00;;;;;;5091547;28;20261;-61
2021/07/22 11:20:34;;;;;;;9.45;4.85;;;29.60;59.50;;;;;;5090721;28;20829;-60
2021/07/22 11:23:17;;;;;;;6.90;5.40;;;29.60;60.00;;;;;;5091546;28;20221;-59
2021/07/22 11:25:48;;;;;;;6.28;5.40;;;29.50;60.00;;;;;;5091582;28;20684;-61
2021/07/22 11:28:17;;;;;;;7.75;6.00;;;29.50;60.60;;;;;;5091254;28;20211;-60
2021/07/22 11:31:02;;;;;;;11.45;6.20;;;29.50;60.60;;;;;;5091987;28;20235;-60
2021/07/22 11:33:33;;;;;;;34.20;14.32;;;29.50;60.00;;;;;;5091508;28;20219;-60
2021/07/22 11:36:02;;;;;;;12.02;6.43;;;29.60;59.70;;;;;;5091531;28;20204;-61
2021/07/22 11:38:29;;;;;;;11.23;6.15;;;29.80;59.80;;;;;;5091192;28;20289;-60
2021/07/22 11:40:56;;;;;;;7.60;5.07;;;30.00;59.50;;;;;;5091220;28;20285;-61
2021/07/22 11:43:33;;;;;;;6.53;5.25;;;30.10;59.40;;;;;;5091387;28;20210;-62
2021/07/22 11:46:01;;;;;;;8.63;5.90;;;30.40;58.70;;;;;;5091293;28;20203;-60
2021/07/22 11:48:28;;;;;;;7.32;5.82;;;30.50;59.30;;;;;;5090849;28;20209;-62
2021/07/22 11:51:00;;;;;;;7.82;5.45;;;30.50;59.20;;;;;;5076144;28;20561;-60
2021/07/22 11:53:26;;;;;;;7.57;5.38;;;30.30;59.10;;;;;;5070587;28;20735;-62
2021/07/22 11:55:53;;;;;;;7.05;5.57;;;30.20;59.80;;;;;;5070882;28;20668;-62
2021/07/22 11:58:20;;;;;;;10.55;6.03;;;30.10;59.70;;;;;;5070694;28;20263;-61
2021/07/22 12:00:47;;;;;;;7.00;6.03;;;30.20;59.90;;;;;;5070409;28;20221;-63
2021/07/22 12:03:15;;;;;;;6.95;5.55;;;30.20;59.50;;;;;;5071015;28;20274;-61
2021/07/22 12:05:42;;;;;;;12.93;5.70;;;30.30;59.50;;;;;;5070460;28;20212;-62
2021/07/22 12:08:16;;;;;;;10.98;5.82;;;30.20;58.90;;;;;;5070723;28;20238;-64
2021/07/22 12:10:43;;;;;;;9.75;5.63;;;30.30;58.90;;;;;;5071083;28;20205;-62
2021/07/22 12:13:10;;;;;;;9.52;6.18;;;30.30;59.00;;;;;;5070901;28;20282;-61
2021/07/22 12:15:37;;;;;;;6.63;5.72;;;30.30;58.80;;;;;;5070859;28;20205;-61
2021/07/22 12:18:05;;;;;;;8.43;6.30;;;30.30;59.10;;;;;;5070075;28;20213;-62
2021/07/22 12:20:34;;;;;;;8.77;5.97;;;30.40;59.10;;;;;;5070505;28;20661;-62
2021/07/22 12:23:20;;;;;;;10.68;5.88;;;30.60;59.80;;;;;;5070598;28;20236;-62
2021/07/22 12:25:56;;;;;;;10.18;5.88;;;30.70;59.50;;;;;;5070249;28;20403;-62
2021/07/22 12:28:22;;;;;;;8.75;6.00;;;30.90;58.90;;;;;;5070650;28;20208;-61
2021/07/22 12:30:49;;;;;;;7.82;6.40;;;31.10;58.90;;;;;;5070505;28;20201;-60
2021/07/22 12:33:23;;;;;;;6.47;5.88;;;31.10;57.60;;;;;;5070144;28;20232;-61
2021/07/22 12:35:51;;;;;;;8.85;6.30;;;31.20;58.00;;;;;;5070470;28;20247;-60
2021/07/22 12:38:25;;;;;;;10.73;6.50;;;31.30;57.70;;;;;;5070613;28;20228;-61
2021/07/22 12:41:04;;;;;;;8.70;5.93;;;31.50;57.90;;;;;;5070249;28;20273;-59
2021/07/22 12:43:45;;;;;;;6.97;5.95;;;31.60;58.60;;;;;;5070268;28;20688;-61
2021/07/22 12:46:17;;;;;;;7.72;6.15;;;31.60;59.10;;;;;;5070292;28;20666;-60
2021/07/22 12:48:44;;;;;;;10.63;6.00;;;31.60;59.30;;;;;;5070337;28;20631;-60
2021/07/22 12:51:14;;;;;;;8.82;6.55;;;31.60;59.50;;;;;;5070487;28;20602;-60
2021/07/22 12:53:41;;;;;;;6.85;6.05;;;31.60;59.50;;;;;;5071984;28;20261;-62